Time,TemperatureF,DewpointF,PressureIn,WindDirection,WindDirectionDegrees,WindSpeedMPH,WindSpeedGustMPH,Humidity,HourlyPrecipIn,Conditions,Clouds,dailyrainin,SolarRadiationWatts/m^2,SoftwareType,DateUTC
2014-01-16 00:02:00,31.0,30.0,-100.00,North,351,2.0,7.0,97,0.00,,,0.00,0.000000,,2014-01-16 05:02:00,
2014-01-16 00:43:00,31.0,30.0,-100.00,North,351,2.0,7.0,97,0.00,,,0.00,0.000000,,2014-01-16 05:43:00,
2014-01-16 00:53:00,31.0,30.0,-100.00,North,351,2.0,7.0,97,0.00,,,0.00,0.000000,,2014-01-16 05:53:00,
2014-01-16 01:43:00,31.0,31.0,-100.00,North,-999,0.0,5.0,98,0.00,,,0.00,0.000000,,2014-01-16 06:43:00,
2014-01-16 01:52:00,31.0,31.0,-100.00,North,-999,0.0,5.0,98,0.00,,,0.00,0.000000,,2014-01-16 06:52:00,
2014-01-16 02:01:00,31.0,31.0,-100.00,North,-999,0.0,5.0,98,0.00,,,0.00,0.000000,,2014-01-16 07:01:00,
2014-01-16 02:42:00,30.0,29.0,-100.00,NNW,327,1.0,5.0,98,0.00,,,0.00,0.000000,,2014-01-16 07:42:00,
2014-01-16 02:52:00,30.0,29.0,-100.00,NNW,327,1.0,5.0,98,0.00,,,0.00,0.000000,,2014-01-16 07:52:00,
2014-01-16 03:01:00,30.0,29.0,-100.00,NNW,327,1.0,5.0,98,0.00,,,0.00,0.000000,,2014-01-16 08:01:00,
2014-01-16 03:02:00,30.0,29.0,-100.00,WSW,251,2.0,5.0,98,0.00,,,0.00,0.000000,,2014-01-16 08:02:00,
2014-01-16 03:42:00,30.0,29.0,-100.00,WSW,251,2.0,5.0,98,0.00,,,0.00,0.000000,,2014-01-16 08:42:00,
2014-01-16 03:53:00,30.0,29.0,-100.00,WSW,251,2.0,5.0,98,0.00,,,0.00,0.000000,,2014-01-16 08:53:00,
2014-01-16 04:02:00,28.0,27.0,-100.00,WSW,248,2.0,6.0,97,0.00,,,0.00,0.000000,,2014-01-16 09:02:00,
2014-01-16 04:43:00,28.0,27.0,-100.00,WSW,248,2.0,6.0,97,0.00,,,0.00,0.000000,,2014-01-16 09:43:00,
2014-01-16 04:53:00,28.0,27.0,-100.00,WSW,248,2.0,6.0,97,0.00,,,0.00,0.000000,,2014-01-16 09:53:00,
2014-01-16 05:02:00,27.0,26.0,-100.00,NNW,338,3.0,8.0,97,0.00,,,0.00,0.000000,,2014-01-16 10:02:00,
2014-01-16 05:43:00,27.0,26.0,-100.00,NNW,338,3.0,8.0,97,0.00,,,0.00,0.000000,,2014-01-16 10:43:00,
2014-01-16 05:53:00,27.0,26.0,-100.00,NNW,338,3.0,8.0,97,0.00,,,0.00,0.000000,,2014-01-16 10:53:00,
2014-01-16 06:02:00,26.0,25.0,-100.00,WNW,296,2.0,8.0,95,0.00,,,0.00,0.000000,,2014-01-16 11:02:00,
2014-01-16 06:42:00,26.0,25.0,-100.00,WNW,296,2.0,8.0,95,0.00,,,0.00,0.000000,,2014-01-16 11:42:00,
2014-01-16 06:53:00,26.0,25.0,-100.00,WNW,296,2.0,8.0,95,0.00,,,0.00,0.000000,,2014-01-16 11:53:00,
2014-01-16 07:02:00,26.0,25.0,-100.00,West,268,1.0,5.0,94,0.00,,,0.00,0.000000,,2014-01-16 12:02:00,
2014-01-16 07:42:00,26.0,25.0,-100.00,West,268,1.0,5.0,94,0.00,,,0.00,0.000000,,2014-01-16 12:42:00,
2014-01-16 07:52:00,26.0,25.0,-100.00,West,268,1.0,5.0,94,0.00,,,0.00,0.000000,,2014-01-16 12:52:00,
2014-01-16 08:02:00,26.0,25.0,-100.00,WSW,251,3.0,7.0,94,0.00,,,0.00,2.000000,,2014-01-16 13:02:00,
2014-01-16 08:42:00,26.0,25.0,-100.00,WSW,251,3.0,7.0,94,0.00,,,0.00,2.000000,,2014-01-16 13:42:00,
2014-01-16 08:52:00,26.0,25.0,-100.00,WSW,251,3.0,7.0,94,0.00,,,0.00,2.000000,,2014-01-16 13:52:00,
2014-01-16 09:02:00,25.0,23.0,-100.00,SSW,202,2.0,6.0,93,0.00,,,0.00,10.000000,,2014-01-16 14:02:00,
2014-01-16 09:42:00,25.0,23.0,-100.00,SSW,202,2.0,6.0,93,0.00,,,0.00,10.000000,,2014-01-16 14:42:00,
2014-01-16 09:52:00,25.0,23.0,-100.00,SSW,202,2.0,6.0,93,0.00,,,0.00,10.000000,,2014-01-16 14:52:00,
2014-01-16 10:02:00,25.0,23.0,-100.00,SSW,208,2.0,5.0,92,0.00,,,0.00,14.000000,,2014-01-16 15:02:00,
2014-01-16 10:43:00,25.0,23.0,-100.00,SSW,208,2.0,5.0,92,0.00,,,0.00,14.000000,,2014-01-16 15:43:00,
2014-01-16 10:54:00,25.0,23.0,-100.00,SSW,208,2.0,5.0,92,0.00,,,0.00,14.000000,,2014-01-16 15:54:00,
2014-01-16 11:02:00,28.0,25.0,-100.00,NE,51,1.0,3.0,89,0.00,,,0.00,37.000000,,2014-01-16 16:02:00,
2014-01-16 11:43:00,28.0,25.0,-100.00,NE,51,1.0,3.0,89,0.00,,,0.00,37.000000,,2014-01-16 16:43:00,
2014-01-16 11:53:00,28.0,25.0,-100.00,NE,51,1.0,3.0,89,0.00,,,0.00,37.000000,,2014-01-16 16:53:00,
2014-01-16 12:02:00,29.0,26.0,-100.00,SW,224,2.0,4.0,90,0.00,,,0.00,44.000000,,2014-01-16 17:02:00,
2014-01-16 12:43:00,29.0,26.0,-100.00,SW,224,2.0,4.0,90,0.00,,,0.00,44.000000,,2014-01-16 17:43:00,
2014-01-16 12:52:00,29.0,26.0,-100.00,SW,224,2.0,4.0,90,0.00,,,0.00,44.000000,,2014-01-16 17:52:00,
2014-01-16 13:02:00,26.0,25.0,-100.00,WNW,287,3.0,6.0,94,0.00,,,0.00,27.000000,,2014-01-16 18:02:00,
2014-01-16 13:42:00,26.0,25.0,-100.00,WNW,287,3.0,6.0,94,0.00,,,0.00,27.000000,,2014-01-16 18:42:00,
2014-01-16 13:52:00,26.0,25.0,-100.00,WNW,287,3.0,6.0,94,0.00,,,0.00,27.000000,,2014-01-16 18:52:00,
2014-01-16 14:02:00,26.0,25.0,-100.00,WNW,285,2.0,5.0,96,0.00,,,0.00,19.000000,,2014-01-16 19:02:00,
2014-01-16 14:42:00,26.0,25.0,-100.00,WNW,285,2.0,5.0,96,0.00,,,0.00,19.000000,,2014-01-16 19:42:00,
2014-01-16 14:52:00,26.0,25.0,-100.00,WNW,285,2.0,5.0,96,0.00,,,0.00,19.000000,,2014-01-16 19:52:00,
2014-01-16 15:02:00,26.0,24.0,-100.00,NW,316,3.0,8.0,92,0.00,,,0.00,25.000000,,2014-01-16 20:02:00,
2014-01-16 15:42:00,26.0,24.0,-100.00,NW,316,3.0,8.0,92,0.00,,,0.00,25.000000,,2014-01-16 20:42:00,
2014-01-16 15:52:00,26.0,24.0,-100.00,NW,316,3.0,8.0,92,0.00,,,0.00,25.000000,,2014-01-16 20:52:00,
2014-01-16 16:02:00,25.0,23.0,-100.00,SW,226,2.0,5.0,91,0.00,,,0.00,14.000000,,2014-01-16 21:02:00,
2014-01-16 16:43:00,25.0,23.0,-100.00,SW,226,2.0,5.0,91,0.00,,,0.00,14.000000,,2014-01-16 21:43:00,
2014-01-16 16:53:00,25.0,23.0,-100.00,SW,226,2.0,5.0,91,0.00,,,0.00,14.000000,,2014-01-16 21:53:00,
2014-01-16 17:02:00,25.0,23.0,-100.00,West,267,1.0,3.0,93,0.00,,,0.00,2.000000,,2014-01-16 22:02:00,
2014-01-16 17:43:00,25.0,23.0,-100.00,West,267,1.0,3.0,93,0.00,,,0.00,2.000000,,2014-01-16 22:43:00,
2014-01-16 17:52:00,25.0,23.0,-100.00,West,267,1.0,3.0,93,0.00,,,0.00,2.000000,,2014-01-16 22:52:00,
2014-01-16 18:02:00,26.0,25.0,-100.00,North,-999,0.0,3.0,94,0.00,,,0.00,0.000000,,2014-01-16 23:02:00,
2014-01-16 18:42:00,26.0,25.0,-100.00,North,-999,0.0,3.0,94,0.00,,,0.00,0.000000,,2014-01-16 23:42:00,
2014-01-16 18:53:00,26.0,25.0,-100.00,North,-999,0.0,3.0,94,0.00,,,0.00,0.000000,,2014-01-16 23:53:00,
2014-01-16 19:02:00,26.0,25.0,-100.00,NNE,20,1.0,2.0,95,0.00,,,0.00,0.000000,,2014-01-17 00:02:00,
2014-01-16 19:22:00,26.0,25.0,-100.00,NNE,20,1.0,2.0,95,0.00,,,0.00,0.000000,,2014-01-17 00:22:00,
2014-01-16 19:32:00,26.0,25.0,-100.00,NNE,20,1.0,2.0,95,0.00,,,0.00,0.000000,,2014-01-17 00:32:00,
2014-01-16 19:42:00,26.0,25.0,-100.00,NNE,20,1.0,2.0,95,0.00,,,0.00,0.000000,,2014-01-17 00:42:00,
2014-01-16 19:53:00,26.0,25.0,-100.00,NNE,20,1.0,2.0,95,0.00,,,0.00,0.000000,,2014-01-17 00:53:00,
2014-01-16 20:42:00,26.0,25.0,-100.00,North,-999,0.0,3.0,95,0.00,,,0.00,0.000000,,2014-01-17 01:42:00,
2014-01-16 20:52:00,26.0,25.0,-100.00,North,-999,0.0,3.0,95,0.00,,,0.00,0.000000,,2014-01-17 01:52:00,
2014-01-16 21:01:00,26.0,25.0,-100.00,North,-999,0.0,3.0,95,0.00,,,0.00,0.000000,,2014-01-17 02:01:00,
2014-01-16 21:02:00,27.0,26.0,-100.00,North,-999,0.0,0.0,95,0.00,,,0.00,0.000000,,2014-01-17 02:02:00,
2014-01-16 21:42:00,27.0,26.0,-100.00,North,-999,0.0,0.0,95,0.00,,,0.00,0.000000,,2014-01-17 02:42:00,
2014-01-16 21:52:00,27.0,26.0,-100.00,North,-999,0.0,0.0,95,0.00,,,0.00,0.000000,,2014-01-17 02:52:00,
2014-01-16 22:02:00,27.0,26.0,-100.00,North,-999,0.0,0.0,96,0.00,,,0.00,0.000000,,2014-01-17 03:02:00,
2014-01-16 22:43:00,27.0,26.0,-100.00,North,-999,0.0,0.0,96,0.00,,,0.00,0.000000,,2014-01-17 03:43:00,
2014-01-16 22:54:00,27.0,26.0,-100.00,North,-999,0.0,0.0,96,0.00,,,0.00,0.000000,,2014-01-17 03:54:00,
2014-01-16 23:02:00,27.0,26.0,-100.00,North,-999,0.0,0.0,97,0.00,,,0.00,0.000000,,2014-01-17 04:02:00,
2014-01-16 23:43:00,27.0,26.0,-100.00,North,-999,0.0,0.0,97,0.00,,,0.00,0.000000,,2014-01-17 04:43:00,
2014-01-16 23:52:00,27.0,26.0,-100.00,North,-999,0.0,0.0,97,0.00,,,0.00,0.000000,,2014-01-17 04:52:00,